Detroit, Michigan
Current Conditions -  °F | °C
As of 4:00 AM on Saturday 22 Nov 2014 (Local Time) from CYQG Reporting Station
Overcast Overcast  
Wind Chill: 18°   Ceiling: 4100
Heat Index: 28°   Visibility: 15mi
Dew Point: 18°   Wind: 13mph
Humidity: 64%   Direction: 200°SSW
Pressure: 30.23"   Gusts: NA
Location:  42.33°N, 83.05°W
Report Text: CYQG 220900Z 20011KT 15SM OVC041 M02/M08 A3023 RMK SC8 SLP246
Loading
Personal Weather Stations






























Interactive Weather Map New forecast layout! Learn more

10-Day Weather Forecast

Advertisements
Track Severe Weather on mobile